createdAt,value
2022-08-01T00:00:12.410Z,1.90
2022-08-01T00:02:41.334Z,1.83
2022-08-01T00:05:11.724Z,2.10
2022-08-01T00:07:40.389Z,2.00
2022-08-01T00:10:14.831Z,2.10
2022-08-01T00:12:44.518Z,1.85
2022-08-01T00:15:15.262Z,1.95
2022-08-01T00:17:44.176Z,2.00
2022-08-01T00:20:15.181Z,2.22
2022-08-01T00:22:43.617Z,1.85
2022-08-01T00:25:13.342Z,2.15
2022-08-01T00:27:41.600Z,2.28
2022-08-01T00:30:14.651Z,2.08
2022-08-01T00:32:43.719Z,2.00
2022-08-01T00:35:12.410Z,2.22
2022-08-01T00:37:40.643Z,1.92
2022-08-01T00:40:09.977Z,2.05
2022-08-01T00:42:43.537Z,1.83
2022-08-01T00:45:12.570Z,1.58
2022-08-01T00:47:41.134Z,1.77
2022-08-01T00:50:10.624Z,1.65
2022-08-01T00:52:40.783Z,1.70
2022-08-01T00:55:15.068Z,2.08
2022-08-01T00:58:02.812Z,1.95
2022-08-01T01:00:34.508Z,1.80
2022-08-01T01:03:23.831Z,1.90
2022-08-01T01:06:09.986Z,1.88
2022-08-01T01:08:45.362Z,1.98
2022-08-01T01:11:19.234Z,1.73
2022-08-01T01:13:54.789Z,2.03
2022-08-01T01:16:24.670Z,1.90
2022-08-01T01:18:57.041Z,1.77
2022-08-01T01:22:00.856Z,1.83
2022-08-01T01:24:40.067Z,1.95
2022-08-01T01:27:20.393Z,1.90
2022-08-01T01:30:00.477Z,2.10
2022-08-01T01:32:35.541Z,1.95
2022-08-01T01:35:08.072Z,1.92
2022-08-01T01:37:37.672Z,2.33
2022-08-01T01:40:07.940Z,1.95
2022-08-01T01:42:38.367Z,1.80
2022-08-01T01:45:10.328Z,2.10
2022-08-01T01:47:40.121Z,1.80
2022-08-01T01:50:13.634Z,1.90
2022-08-01T01:52:44.577Z,1.65
2022-08-01T01:55:14.104Z,2.10
2022-08-01T01:57:45.698Z,1.85
2022-08-01T02:00:17.595Z,1.90
2022-08-01T02:02:46.792Z,2.05
2022-08-01T02:05:15.856Z,1.80
2022-08-01T02:07:45.497Z,2.10
2022-08-01T02:10:19.870Z,2.10
2022-08-01T02:12:58.122Z,2.20
2022-08-01T02:15:29.671Z,2.20
2022-08-01T02:17:59.865Z,2.10
2022-08-01T02:20:31.162Z,2.25
2022-08-01T02:23:08.847Z,2.08
2022-08-01T02:26:10.938Z,2.20
2022-08-01T02:28:38.462Z,2.10
2022-08-01T02:31:15.296Z,2.15
2022-08-01T02:33:48.331Z,1.95
2022-08-01T02:36:30.854Z,1.88
2022-08-01T02:39:05.445Z,2.10
2022-08-01T02:41:38.661Z,2.08
2022-08-01T02:44:09.341Z,1.63
2022-08-01T02:46:43.092Z,2.60
2022-08-01T02:49:14.803Z,2.47
2022-08-01T02:51:45.348Z,2.22
2022-08-01T02:54:14.370Z,1.98
2022-08-01T02:56:43.776Z,1.90
2022-08-01T02:59:21.371Z,1.92
2022-08-01T03:01:55.094Z,2.42
2022-08-01T03:04:25.299Z,2.20
2022-08-01T03:06:56.068Z,2.17
2022-08-01T03:09:25.200Z,1.98
2022-08-01T03:11:55.021Z,2.10
2022-08-01T03:14:27.452Z,2.22
2022-08-01T03:16:58.388Z,2.10
2022-08-01T03:19:28.722Z,3.30
2022-08-01T03:21:59.857Z,4.28
2022-08-01T03:24:29.404Z,3.35
2022-08-01T03:26:59.227Z,3.40
2022-08-01T03:29:31.456Z,5.25
2022-08-01T03:32:02.323Z,4.78
2022-08-01T03:34:30.903Z,4.03
2022-08-01T03:37:08.019Z,3.60
2022-08-01T03:39:42.501Z,3.20
2022-08-01T03:42:17.036Z,2.47
2022-08-01T03:44:55.026Z,2.10
2022-08-01T03:47:28.485Z,2.33
2022-08-01T03:49:58.571Z,2.22
2022-08-01T03:52:28.257Z,2.35
2022-08-01T03:55:00.337Z,2.13
2022-08-01T03:57:36.212Z,1.95
2022-08-01T04:00:10.042Z,1.95
2022-08-01T04:02:40.876Z,2.10
2022-08-01T04:05:10.076Z,2.03
2022-08-01T04:07:40.275Z,2.10
2022-08-01T04:10:09.283Z,2.25
2022-08-01T04:12:37.605Z,2.35
2022-08-01T04:15:07.144Z,2.30
2022-08-01T04:17:35.405Z,2.50
2022-08-01T04:20:05.851Z,2.50
2022-08-01T04:22:37.175Z,2.35
2022-08-01T04:25:11.529Z,2.38
2022-08-01T04:27:49.658Z,2.15
2022-08-01T04:30:23.253Z,2.42
2022-08-01T04:32:53.237Z,2.20
2022-08-01T04:36:03.261Z,2.50
2022-08-01T04:38:14.224Z,2.60
2022-08-01T04:40:43.574Z,2.90
2022-08-01T04:43:14.468Z,2.63
2022-08-01T04:45:45.568Z,2.75
2022-08-01T04:48:15.529Z,3.08
2022-08-01T04:50:45.416Z,2.80
2022-08-01T04:53:17.841Z,2.58
2022-08-01T04:55:47.831Z,2.80
2022-08-01T04:58:18.535Z,2.45
2022-08-01T05:00:47.695Z,2.60
2022-08-01T05:03:16.234Z,2.55
2022-08-01T05:05:45.979Z,2.42
2022-08-01T05:08:14.296Z,2.42
2022-08-01T05:10:44.271Z,2.70
2022-08-01T05:13:12.469Z,2.63
2022-08-01T05:15:40.794Z,2.60
2022-08-01T05:18:09.444Z,3.05
2022-08-01T05:20:38.097Z,3.10
2022-08-01T05:23:10.078Z,2.92
2022-08-01T05:25:57.744Z,2.70
2022-08-01T05:28:26.658Z,3.35
2022-08-01T05:30:56.055Z,3.10
2022-08-01T05:33:24.590Z,3.35
2022-08-01T05:35:52.867Z,2.92
2022-08-01T05:38:25.310Z,2.88
2022-08-01T05:40:53.710Z,3.10
2022-08-01T05:43:26.785Z,2.85
2022-08-01T05:45:56.932Z,3.10
2022-08-01T05:48:25.156Z,2.72
2022-08-01T05:50:58.212Z,3.03
2022-08-01T05:53:28.690Z,2.67
2022-08-01T05:55:57.026Z,2.78
2022-08-01T05:58:25.340Z,2.83
2022-08-01T06:00:53.536Z,2.70
2022-08-01T06:03:21.907Z,2.72
2022-08-01T06:05:50.190Z,3.20
2022-08-01T06:08:18.460Z,2.97
2022-08-01T06:10:50.488Z,3.35
2022-08-01T06:13:20.483Z,3.60
2022-08-01T06:15:48.969Z,3.45
2022-08-01T06:18:17.501Z,3.30
2022-08-01T06:20:46.061Z,3.95
2022-08-01T06:23:31.568Z,3.30
2022-08-01T06:26:02.572Z,3.55
2022-08-01T06:28:30.927Z,3.90
2022-08-01T06:31:00.566Z,3.50
2022-08-01T06:33:29.470Z,3.80
2022-08-01T06:35:57.932Z,4.07
2022-08-01T06:38:26.812Z,4.15
2022-08-01T06:40:55.070Z,3.65
2022-08-01T06:43:24.673Z,3.70
2022-08-01T06:45:53.075Z,3.60
2022-08-01T06:48:21.327Z,3.97
2022-08-01T06:50:49.676Z,3.70
2022-08-01T06:53:17.925Z,4.15
2022-08-01T06:55:46.137Z,3.80
2022-08-01T06:58:14.377Z,4.30
2022-08-01T07:00:44.199Z,3.92
2022-08-01T07:03:12.496Z,4.10
2022-08-01T07:05:40.804Z,3.85
2022-08-01T07:08:09.032Z,3.90
2022-08-01T07:10:37.341Z,3.88
2022-08-01T07:13:05.650Z,4.30
2022-08-01T07:15:33.874Z,3.90
2022-08-01T07:18:04.936Z,4.45
2022-08-01T07:20:37.626Z,4.13
2022-08-01T07:23:09.463Z,4.40
2022-08-01T07:25:41.256Z,4.28
2022-08-01T07:28:18.904Z,3.90
2022-08-01T07:30:47.192Z,3.83
2022-08-01T07:33:16.890Z,3.60
2022-08-01T07:35:45.225Z,4.00
2022-08-01T07:38:13.861Z,3.90
2022-08-01T07:40:42.114Z,4.68
2022-08-01T07:43:10.354Z,4.10
2022-08-01T07:45:38.547Z,4.32
2022-08-01T07:48:16.108Z,4.22
2022-08-01T07:50:44.359Z,4.32
2022-08-01T07:53:12.954Z,3.80
2022-08-01T07:55:41.234Z,3.90
2022-08-01T07:58:09.541Z,4.00
2022-08-01T08:00:37.889Z,4.10
2022-08-01T08:03:06.230Z,4.13
2022-08-01T08:05:57.930Z,4.38
2022-08-01T08:08:24.997Z,4.18
2022-08-01T08:10:53.451Z,4.03
2022-08-01T08:13:21.763Z,3.90
2022-08-01T08:15:50.376Z,4.13
2022-08-01T08:18:18.684Z,4.25
2022-08-01T08:20:49.662Z,4.55
2022-08-01T08:23:42.495Z,4.20
2022-08-01T08:26:11.793Z,4.00
2022-08-01T08:28:40.343Z,3.80
2022-08-01T08:31:25.572Z,3.70
2022-08-01T08:33:57.828Z,4.72
2022-08-01T08:36:31.304Z,4.72
2022-08-01T08:39:03.046Z,4.40
2022-08-01T08:41:37.655Z,4.60
2022-08-01T08:44:09.916Z,4.63
2022-08-01T08:46:43.267Z,5.25
2022-08-01T08:49:12.511Z,5.65
2022-08-01T08:51:44.215Z,5.72
2022-08-01T08:54:14.860Z,5.45
2022-08-01T08:56:44.098Z,5.63
2022-08-01T08:59:15.374Z,5.93
2022-08-01T09:01:44.603Z,6.20
2022-08-01T09:04:13.300Z,6.00
2022-08-01T09:06:43.052Z,6.20
2022-08-01T09:09:12.146Z,6.85
2022-08-01T09:11:40.478Z,6.68
2022-08-01T09:14:11.392Z,6.60
2022-08-01T09:16:48.330Z,6.63
2022-08-01T09:19:39.813Z,6.75
2022-08-01T09:22:12.097Z,6.30
2022-08-01T09:24:41.583Z,6.65
2022-08-01T09:27:21.661Z,6.93
2022-08-01T09:30:00.650Z,7.25
2022-08-01T09:32:35.693Z,6.72
2022-08-01T09:35:29.862Z,6.80
2022-08-01T09:38:16.809Z,6.55
2022-08-01T09:40:58.364Z,7.40
2022-08-01T09:43:29.398Z,7.07
2022-08-01T09:46:00.031Z,6.95
2022-08-01T09:48:30.112Z,7.40
2022-08-01T09:51:04.440Z,7.30
2022-08-01T09:53:52.017Z,7.10
2022-08-01T09:56:22.598Z,6.72
2022-08-01T09:58:59.864Z,6.75
2022-08-01T10:01:36.746Z,6.70
2022-08-01T10:04:13.920Z,5.90
2022-08-01T10:06:45.389Z,5.80
2022-08-01T10:09:15.992Z,5.88
2022-08-01T10:11:45.640Z,6.40
2022-08-01T10:14:18.173Z,6.28
2022-08-01T10:16:53.792Z,6.30
2022-08-01T10:19:28.968Z,5.35
2022-08-01T10:22:00.208Z,5.55
2022-08-01T10:24:33.553Z,5.80
2022-08-01T10:27:09.081Z,5.75
2022-08-01T10:29:59.914Z,5.72
2022-08-01T10:32:32.180Z,5.70
2022-08-01T10:35:06.300Z,6.00
2022-08-01T10:37:36.109Z,5.38
2022-08-01T10:40:30.998Z,6.60
2022-08-01T10:43:00.407Z,6.20
2022-08-01T10:45:30.455Z,6.13
2022-08-01T10:48:06.737Z,5.97
2022-08-01T10:50:39.604Z,5.90
2022-08-01T10:53:16.295Z,5.70
2022-08-01T10:55:55.286Z,5.95
2022-08-01T10:58:28.127Z,6.20
2022-08-01T11:01:26.287Z,6.05
2022-08-01T11:04:11.403Z,6.20
2022-08-01T11:06:49.564Z,5.93
2022-08-01T11:09:37.325Z,6.00
2022-08-01T11:12:13.258Z,5.80
2022-08-01T11:15:29.068Z,5.65
2022-08-01T11:18:00.902Z,5.65
2022-08-01T11:20:32.413Z,5.90
2022-08-01T11:23:35.953Z,5.57
2022-08-01T11:26:15.003Z,6.40
2022-08-01T11:29:20.165Z,6.22
2022-08-01T11:31:50.008Z,6.45
2022-08-01T11:34:18.269Z,6.03
2022-08-01T11:37:03.224Z,6.43
2022-08-01T11:39:35.534Z,6.10
2022-08-01T11:42:21.280Z,5.82
2022-08-01T11:44:54.081Z,6.18
2022-08-01T11:47:45.421Z,6.20
2022-08-01T11:50:38.112Z,6.65
2022-08-01T11:53:09.379Z,5.93
2022-08-01T11:55:47.656Z,6.10
2022-08-01T11:58:29.315Z,6.65
2022-08-01T12:01:01.229Z,6.45
2022-08-01T12:03:33.834Z,6.25
2022-08-01T12:06:03.007Z,5.90
2022-08-01T12:08:33.947Z,5.95
2022-08-01T12:11:03.532Z,5.55
2022-08-01T12:13:42.583Z,6.22
2022-08-01T12:16:13.158Z,5.95
2022-08-01T12:18:42.379Z,5.32
2022-08-01T12:21:10.817Z,5.70
2022-08-01T12:23:39.236Z,6.57
2022-08-01T12:26:07.569Z,6.65
2022-08-01T12:28:41.842Z,6.25
2022-08-01T12:31:12.726Z,6.65
2022-08-01T12:33:41.152Z,6.60
2022-08-01T12:36:14.630Z,7.10
2022-08-01T12:38:43.279Z,7.05
2022-08-01T12:41:13.202Z,6.63
2022-08-01T12:43:42.761Z,7.10
2022-08-01T12:46:17.137Z,7.68
2022-08-01T12:48:45.932Z,7.75
2022-08-01T12:51:14.499Z,6.97
2022-08-01T12:53:42.860Z,7.82
2022-08-01T12:56:12.386Z,9.60
2022-08-01T12:58:41.272Z,7.50
2022-08-01T13:01:14.213Z,7.55
2022-08-01T13:03:43.077Z,7.40
2022-08-01T13:06:17.555Z,7.65
2022-08-01T13:08:47.138Z,8.07
2022-08-01T13:11:18.149Z,8.73
2022-08-01T13:13:49.214Z,8.43
2022-08-01T13:16:30.420Z,8.00
2022-08-01T13:19:07.673Z,7.90
2022-08-01T13:21:52.557Z,8.73
2022-08-01T13:24:27.849Z,8.45
2022-08-01T13:27:01.472Z,8.52
2022-08-01T13:29:34.547Z,8.15
2022-08-01T13:32:28.006Z,7.95
2022-08-01T13:35:04.197Z,8.30
2022-08-01T13:37:32.622Z,7.78
2022-08-01T13:40:00.918Z,7.93
2022-08-01T13:42:30.293Z,8.05
2022-08-01T13:44:58.687Z,8.18
2022-08-01T13:47:32.499Z,7.78
2022-08-01T13:50:03.916Z,8.43
2022-08-01T13:52:35.513Z,8.45
2022-08-01T13:55:04.011Z,8.35
2022-08-01T13:57:39.607Z,9.27
2022-08-01T14:00:10.127Z,9.00
2022-08-01T14:02:39.882Z,9.13
2022-08-01T14:05:09.051Z,8.82
2022-08-01T14:07:38.114Z,8.32
2022-08-01T14:10:19.576Z,8.45
2022-08-01T14:12:49.525Z,8.65
2022-08-01T14:15:37.808Z,8.45
2022-08-01T14:18:09.520Z,8.18
2022-08-01T14:20:39.287Z,8.32
2022-08-01T14:23:09.008Z,8.50
2022-08-01T14:26:05.186Z,8.88
2022-08-01T14:28:28.481Z,8.23
2022-08-01T14:30:57.516Z,8.90
2022-08-01T14:33:27.831Z,9.30
2022-08-01T14:36:05.175Z,9.32
2022-08-01T14:38:34.665Z,8.95
2022-08-01T14:41:04.455Z,9.05
2022-08-01T14:43:34.196Z,9.00
2022-08-01T14:46:04.591Z,9.30
2022-08-01T14:48:34.470Z,8.80
2022-08-01T14:51:04.117Z,8.27
2022-08-01T14:53:35.646Z,9.13
2022-08-01T14:56:05.005Z,8.73
2022-08-01T14:58:33.308Z,8.40
2022-08-01T15:01:01.762Z,8.85
2022-08-01T15:03:32.776Z,8.48
2022-08-01T15:06:03.403Z,8.75
2022-08-01T15:08:33.397Z,9.35
2022-08-01T15:11:03.084Z,9.30
2022-08-01T15:13:31.323Z,8.50
2022-08-01T15:16:00.490Z,8.20
2022-08-01T15:18:29.481Z,8.10
2022-08-01T15:20:58.437Z,8.45
2022-08-01T15:23:28.208Z,8.55
2022-08-01T15:25:56.462Z,8.48
2022-08-01T15:28:24.749Z,7.90
2022-08-01T15:30:53.072Z,8.38
2022-08-01T15:33:22.747Z,8.13
2022-08-01T15:35:52.874Z,8.63
2022-08-01T15:38:22.744Z,8.23
2022-08-01T15:40:52.780Z,8.32
2022-08-01T15:43:21.065Z,8.15
2022-08-01T15:45:49.621Z,8.00
2022-08-01T15:48:18.276Z,12.68
2022-08-01T15:50:46.796Z,8.70
2022-08-01T15:53:15.215Z,8.60
2022-08-01T15:55:52.492Z,8.55
2022-08-01T15:58:22.514Z,8.43
2022-08-01T16:00:50.711Z,8.35
2022-08-01T16:03:19.096Z,8.40
2022-08-01T16:05:47.355Z,9.20
2022-08-01T16:08:16.004Z,9.98
2022-08-01T16:10:44.425Z,8.82
2022-08-01T16:13:13.381Z,9.38
2022-08-01T16:15:43.023Z,9.98
2022-08-01T16:18:14.505Z,9.30
2022-08-01T16:20:45.718Z,9.27
2022-08-01T16:23:14.683Z,10.57
2022-08-01T16:25:43.840Z,9.35
2022-08-01T16:28:12.275Z,9.38
2022-08-01T16:30:48.829Z,9.50
2022-08-01T16:33:45.973Z,9.10
2022-08-01T16:36:19.176Z,10.50
2022-08-01T16:38:47.912Z,9.30
2022-08-01T16:41:19.699Z,9.68
2022-08-01T16:43:53.666Z,9.45
2022-08-01T16:46:23.585Z,9.30
2022-08-01T16:48:53.672Z,8.90
2022-08-01T16:51:22.185Z,9.25
2022-08-01T16:53:50.648Z,8.93
2022-08-01T16:56:18.948Z,8.75
2022-08-01T16:58:47.162Z,9.13
2022-08-01T17:01:57.848Z,8.35
2022-08-01T17:04:05.712Z,8.63
2022-08-01T17:06:33.943Z,8.70
2022-08-01T17:09:02.253Z,9.18
2022-08-01T17:11:30.625Z,9.18
2022-08-01T17:13:59.063Z,9.45
2022-08-01T17:16:27.330Z,9.05
2022-08-01T17:18:55.725Z,9.32
2022-08-01T17:21:25.398Z,8.45
2022-08-01T17:23:53.692Z,8.43
2022-08-01T17:26:22.013Z,8.23
2022-08-01T17:28:50.473Z,8.15
2022-08-01T17:31:18.864Z,8.73
2022-08-01T17:33:50.522Z,8.57
2022-08-01T17:36:21.504Z,8.40
2022-08-01T17:38:51.166Z,8.30
2022-08-01T17:41:19.444Z,8.07
2022-08-01T17:43:47.699Z,8.15
2022-08-01T17:46:16.057Z,7.97
2022-08-01T17:48:44.643Z,8.52
2022-08-01T17:51:12.914Z,8.43
2022-08-01T17:53:55.644Z,8.00
2022-08-01T17:56:28.221Z,7.95
2022-08-01T17:58:57.048Z,7.80
2022-08-01T18:01:26.399Z,8.40
2022-08-01T18:03:57.685Z,7.82
2022-08-01T18:06:27.235Z,8.00
2022-08-01T18:08:56.725Z,7.95
2022-08-01T18:11:29.497Z,8.38
2022-08-01T18:14:05.957Z,8.27
2022-08-01T18:16:34.209Z,8.00
2022-08-01T18:19:02.430Z,7.88
2022-08-01T18:21:32.236Z,7.65
2022-08-01T18:24:01.567Z,7.40
2022-08-01T18:26:31.332Z,7.70
2022-08-01T18:28:59.630Z,7.50
2022-08-01T18:31:27.849Z,7.20
2022-08-01T18:33:56.068Z,6.93
2022-08-01T18:36:32.698Z,7.43
2022-08-01T18:39:04.453Z,7.32
2022-08-01T18:41:35.156Z,6.82
2022-08-01T18:44:07.983Z,6.97
2022-08-01T18:46:38.148Z,7.07
2022-08-01T18:49:07.088Z,6.78
2022-08-01T18:51:38.847Z,6.60
2022-08-01T18:54:11.477Z,6.95
2022-08-01T18:56:41.313Z,6.78
2022-08-01T18:59:09.554Z,6.57
2022-08-01T19:01:39.676Z,6.60
2022-08-01T19:04:09.100Z,6.40
2022-08-01T19:06:37.620Z,5.80
2022-08-01T19:09:06.273Z,5.30
2022-08-01T19:11:35.513Z,4.88
2022-08-01T19:14:05.173Z,4.70
2022-08-01T19:16:33.979Z,4.30
2022-08-01T19:19:05.218Z,4.35
2022-08-01T19:21:35.221Z,3.78
2022-08-01T19:24:23.009Z,3.65
2022-08-01T19:26:54.050Z,3.47
2022-08-01T19:29:35.378Z,3.42
2022-08-01T19:32:06.911Z,3.75
2022-08-01T19:34:37.664Z,3.58
2022-08-01T19:37:06.427Z,3.15
2022-08-01T19:39:35.261Z,3.42
2022-08-01T19:42:04.237Z,3.42
2022-08-01T19:44:34.774Z,3.05
2022-08-01T19:47:03.618Z,2.90
2022-08-01T19:49:31.949Z,3.03
2022-08-01T19:52:02.518Z,3.22
2022-08-01T19:54:36.512Z,2.67
2022-08-01T19:57:07.298Z,3.33
2022-08-01T19:59:38.042Z,2.80
2022-08-01T20:02:07.036Z,2.78
2022-08-01T20:04:35.875Z,2.80
2022-08-01T20:07:05.106Z,2.60
2022-08-01T20:09:34.576Z,2.83
2022-08-01T20:12:03.039Z,2.72
2022-08-01T20:14:31.304Z,2.70
2022-08-01T20:17:01.064Z,2.78
2022-08-01T20:19:30.621Z,2.85
2022-08-01T20:22:03.202Z,3.05
2022-08-01T20:24:39.647Z,2.58
2022-08-01T20:27:11.102Z,2.80
2022-08-01T20:29:40.595Z,2.88
2022-08-01T20:32:10.871Z,2.60
2022-08-01T20:34:40.424Z,2.60
2022-08-01T20:37:13.232Z,2.50
2022-08-01T20:39:44.960Z,2.60
2022-08-01T20:42:14.142Z,2.80
2022-08-01T20:44:42.936Z,2.50
2022-08-01T20:47:13.961Z,2.50
2022-08-01T20:49:44.463Z,2.40
2022-08-01T20:52:13.009Z,2.45
2022-08-01T20:54:42.424Z,2.42
2022-08-01T20:57:17.013Z,2.30
2022-08-01T20:59:56.621Z,2.10
2022-08-01T21:02:38.292Z,2.15
2022-08-01T21:05:10.813Z,2.20
2022-08-01T21:07:43.986Z,2.42
2022-08-01T21:10:15.360Z,2.22
2022-08-01T21:12:45.873Z,2.17
2022-08-01T21:15:20.812Z,1.85
2022-08-01T21:17:56.896Z,2.20
2022-08-01T21:20:29.116Z,1.85
2022-08-01T21:23:09.752Z,2.15
2022-08-01T21:25:38.670Z,2.00
2022-08-01T21:28:06.965Z,1.90
2022-08-01T21:30:37.576Z,1.90
2022-08-01T21:33:11.285Z,2.28
2022-08-01T21:35:40.550Z,1.60
2022-08-01T21:38:10.603Z,1.60
2022-08-01T21:40:39.425Z,1.95
2022-08-01T21:43:08.790Z,1.55
2022-08-01T21:45:39.111Z,1.63
2022-08-01T21:48:31.045Z,1.90
2022-08-01T21:51:02.309Z,1.92
2022-08-01T21:53:38.421Z,1.70
2022-08-01T21:56:20.788Z,1.67
2022-08-01T21:58:57.870Z,1.50
2022-08-01T22:01:33.422Z,1.52
2022-08-01T22:04:28.962Z,1.63
2022-08-01T22:06:58.690Z,1.50
2022-08-01T22:09:28.920Z,1.83
2022-08-01T22:12:01.940Z,1.50
2022-08-01T22:14:33.563Z,1.95
2022-08-01T22:17:02.485Z,1.80
2022-08-01T22:19:45.427Z,1.60
2022-08-01T22:22:44.571Z,1.80
2022-08-01T22:25:03.925Z,1.67
2022-08-01T22:28:06.570Z,1.70
2022-08-01T22:30:20.913Z,1.90
2022-08-01T22:33:15.485Z,1.45
2022-08-01T22:35:39.965Z,1.75
2022-08-01T22:38:09.936Z,1.75
2022-08-01T22:40:45.764Z,1.83
2022-08-01T22:43:19.580Z,1.80
2022-08-01T22:45:52.840Z,1.80
2022-08-01T22:48:26.283Z,1.88
2022-08-01T22:51:02.992Z,1.50
2022-08-01T22:53:38.526Z,1.55
2022-08-01T22:56:10.840Z,1.70
2022-08-01T22:58:41.519Z,1.80
2022-08-01T23:01:13.702Z,1.70
2022-08-01T23:03:52.446Z,1.83
2022-08-01T23:06:26.980Z,1.83
2022-08-01T23:08:57.445Z,2.03
2022-08-01T23:11:25.824Z,1.88
2022-08-01T23:13:54.189Z,2.05
2022-08-01T23:16:23.007Z,2.13
2022-08-01T23:18:55.044Z,2.13
2022-08-01T23:21:25.605Z,2.17
2022-08-01T23:23:55.239Z,1.95
2022-08-01T23:26:24.293Z,2.38
2022-08-01T23:28:53.993Z,2.40
2022-08-01T23:31:57.325Z,2.33
2022-08-01T23:34:15.402Z,2.20
2022-08-01T23:36:47.612Z,2.33
2022-08-01T23:39:15.921Z,2.17
2022-08-01T23:41:57.337Z,2.92
2022-08-01T23:44:26.903Z,1.92
2022-08-01T23:46:55.230Z,2.55
2022-08-01T23:49:23.572Z,2.20
2022-08-01T23:51:53.978Z,2.53
2022-08-01T23:54:22.199Z,1.98
2022-08-01T23:56:52.396Z,2.50
2022-08-01T23:59:21.165Z,2.40
